sensor_id;sensor_type;location;lat;lon;timestamp;P1;durP1;ratioP1;P2;durP2;ratioP2
36009;SDS011;22076;52.182;5.404;2022-12-18T00:01:48;74.65;;;29.77;;
36009;SDS011;22076;52.182;5.404;2022-12-18T00:04:15;79.80;;;30.25;;
36009;SDS011;22076;52.182;5.404;2022-12-18T00:06:44;90.15;;;35.10;;
36009;SDS011;22076;52.182;5.404;2022-12-18T00:09:11;79.53;;;30.65;;
36009;SDS011;22076;52.182;5.404;2022-12-18T00:11:38;80.55;;;33.95;;
36009;SDS011;22076;52.182;5.404;2022-12-18T00:14:05;83.40;;;33.00;;
36009;SDS011;22076;52.182;5.404;2022-12-18T00:16:32;74.55;;;29.00;;
36009;SDS011;22076;52.182;5.404;2022-12-18T00:19:00;87.40;;;35.17;;
36009;SDS011;22076;52.182;5.404;2022-12-18T00:21:27;90.28;;;35.17;;
36009;SDS011;22076;52.182;5.404;2022-12-18T00:23:55;98.22;;;37.80;;
36009;SDS011;22076;52.182;5.404;2022-12-18T00:26:22;91.47;;;33.50;;
36009;SDS011;22076;52.182;5.404;2022-12-18T00:28:50;98.32;;;37.80;;
36009;SDS011;22076;52.182;5.404;2022-12-18T00:31:21;49.60;;;17.42;;
36009;SDS011;22076;52.182;5.404;2022-12-18T00:33:49;100.05;;;34.80;;
36009;SDS011;22076;52.182;5.404;2022-12-18T00:36:16;97.32;;;37.25;;
36009;SDS011;22076;52.182;5.404;2022-12-18T00:38:44;102.95;;;38.17;;
36009;SDS011;22076;52.182;5.404;2022-12-18T00:41:13;90.70;;;34.08;;
36009;SDS011;22076;52.182;5.404;2022-12-18T00:44:00;85.80;;;33.45;;
36009;SDS011;22076;52.182;5.404;2022-12-18T00:46:27;99.32;;;36.38;;
36009;SDS011;22076;52.182;5.404;2022-12-18T00:48:54;89.22;;;31.92;;
36009;SDS011;22076;52.182;5.404;2022-12-18T00:51:20;104.78;;;40.42;;
36009;SDS011;22076;52.182;5.404;2022-12-18T00:53:47;93.88;;;36.47;;
36009;SDS011;22076;52.182;5.404;2022-12-18T00:56:13;109.20;;;40.53;;
36009;SDS011;22076;52.182;5.404;2022-12-18T00:58:40;90.30;;;36.78;;
36009;SDS011;22076;52.182;5.404;2022-12-18T01:01:06;104.78;;;38.63;;
36009;SDS011;22076;52.182;5.404;2022-12-18T01:03:35;98.28;;;38.25;;
36009;SDS011;22076;52.182;5.404;2022-12-18T01:06:04;90.65;;;35.08;;
36009;SDS011;22076;52.182;5.404;2022-12-18T01:08:32;96.45;;;35.30;;
36009;SDS011;22076;52.182;5.404;2022-12-18T01:10:58;105.50;;;39.53;;
36009;SDS011;22076;52.182;5.404;2022-12-18T01:13:25;100.20;;;37.83;;
36009;SDS011;22076;52.182;5.404;2022-12-18T01:15:51;90.75;;;37.17;;
36009;SDS011;22076;52.182;5.404;2022-12-18T01:18:18;100.40;;;37.08;;
36009;SDS011;22076;52.182;5.404;2022-12-18T01:20:46;96.30;;;36.53;;
36009;SDS011;22076;52.182;5.404;2022-12-18T01:23:13;98.47;;;38.42;;
36009;SDS011;22076;52.182;5.404;2022-12-18T01:25:39;108.63;;;38.03;;
36009;SDS011;22076;52.182;5.404;2022-12-18T01:28:06;87.75;;;34.63;;
36009;SDS011;22076;52.182;5.404;2022-12-18T01:30:32;85.65;;;33.08;;
36009;SDS011;22076;52.182;5.404;2022-12-18T01:32:59;99.18;;;36.50;;
36009;SDS011;22076;52.182;5.404;2022-12-18T01:35:25;102.72;;;37.67;;
36009;SDS011;22076;52.182;5.404;2022-12-18T01:37:55;86.38;;;32.25;;
36009;SDS011;22076;52.182;5.404;2022-12-18T01:40:21;104.43;;;39.28;;
36009;SDS011;22076;52.182;5.404;2022-12-18T01:42:49;104.78;;;39.00;;
36009;SDS011;22076;52.182;5.404;2022-12-18T01:45:23;85.68;;;32.17;;
36009;SDS011;22076;52.182;5.404;2022-12-18T01:47:52;71.07;;;30.40;;
36009;SDS011;22076;52.182;5.404;2022-12-18T01:50:21;99.63;;;38.60;;
36009;SDS011;22076;52.182;5.404;2022-12-18T01:52:50;98.88;;;37.47;;
36009;SDS011;22076;52.182;5.404;2022-12-18T01:55:20;104.93;;;40.55;;
36009;SDS011;22076;52.182;5.404;2022-12-18T01:57:49;109.65;;;39.55;;
36009;SDS011;22076;52.182;5.404;2022-12-18T02:00:17;85.70;;;34.72;;
36009;SDS011;22076;52.182;5.404;2022-12-18T02:02:46;97.90;;;38.33;;
36009;SDS011;22076;52.182;5.404;2022-12-18T02:05:14;81.35;;;31.70;;
36009;SDS011;22076;52.182;5.404;2022-12-18T02:07:45;93.15;;;35.38;;
36009;SDS011;22076;52.182;5.404;2022-12-18T02:10:22;101.30;;;38.78;;
36009;SDS011;22076;52.182;5.404;2022-12-18T02:12:52;93.97;;;34.93;;
36009;SDS011;22076;52.182;5.404;2022-12-18T02:15:24;101.65;;;39.20;;
36009;SDS011;22076;52.182;5.404;2022-12-18T02:17:54;82.15;;;31.45;;
36009;SDS011;22076;52.182;5.404;2022-12-18T02:20:24;74.90;;;28.00;;
36009;SDS011;22076;52.182;5.404;2022-12-18T02:23:00;103.95;;;38.97;;
36009;SDS011;22076;52.182;5.404;2022-12-18T02:28:22;80.50;;;34.72;;
36009;SDS011;22076;52.182;5.404;2022-12-18T02:30:50;86.50;;;32.90;;
36009;SDS011;22076;52.182;5.404;2022-12-18T02:33:17;104.95;;;37.20;;
36009;SDS011;22076;52.182;5.404;2022-12-18T02:35:45;98.80;;;37.28;;
36009;SDS011;22076;52.182;5.404;2022-12-18T02:38:12;79.13;;;31.80;;
36009;SDS011;22076;52.182;5.404;2022-12-18T02:40:39;84.30;;;32.28;;
36009;SDS011;22076;52.182;5.404;2022-12-18T02:43:09;78.53;;;30.25;;
36009;SDS011;22076;52.182;5.404;2022-12-18T02:45:45;93.65;;;37.50;;
36009;SDS011;22076;52.182;5.404;2022-12-18T02:48:13;81.47;;;30.30;;
36009;SDS011;22076;52.182;5.404;2022-12-18T02:50:41;68.28;;;27.15;;
36009;SDS011;22076;52.182;5.404;2022-12-18T02:53:14;65.00;;;25.80;;
36009;SDS011;22076;52.182;5.404;2022-12-18T02:55:47;69.05;;;28.13;;
36009;SDS011;22076;52.182;5.404;2022-12-18T02:58:24;73.70;;;29.70;;
36009;SDS011;22076;52.182;5.404;2022-12-18T03:00:53;80.35;;;30.77;;
36009;SDS011;22076;52.182;5.404;2022-12-18T03:03:25;91.30;;;34.85;;
36009;SDS011;22076;52.182;5.404;2022-12-18T03:05:55;80.93;;;33.28;;
36009;SDS011;22076;52.182;5.404;2022-12-18T03:08:24;71.50;;;30.95;;
36009;SDS011;22076;52.182;5.404;2022-12-18T03:10:53;90.95;;;35.15;;
36009;SDS011;22076;52.182;5.404;2022-12-18T03:13:25;77.90;;;30.70;;
36009;SDS011;22076;52.182;5.404;2022-12-18T03:15:56;81.03;;;32.47;;
36009;SDS011;22076;52.182;5.404;2022-12-18T03:18:23;68.45;;;30.25;;
36009;SDS011;22076;52.182;5.404;2022-12-18T03:20:51;85.70;;;34.88;;
36009;SDS011;22076;52.182;5.404;2022-12-18T03:23:20;83.85;;;34.00;;
36009;SDS011;22076;52.182;5.404;2022-12-18T03:25:49;73.15;;;29.80;;
36009;SDS011;22076;52.182;5.404;2022-12-18T03:28:19;68.68;;;28.25;;
36009;SDS011;22076;52.182;5.404;2022-12-18T03:30:49;70.45;;;26.27;;
36009;SDS011;22076;52.182;5.404;2022-12-18T03:33:18;63.15;;;27.23;;
36009;SDS011;22076;52.182;5.404;2022-12-18T03:35:46;79.88;;;31.95;;
36009;SDS011;22076;52.182;5.404;2022-12-18T03:38:13;65.55;;;27.35;;
36009;SDS011;22076;52.182;5.404;2022-12-18T03:40:43;62.30;;;26.63;;
36009;SDS011;22076;52.182;5.404;2022-12-18T03:43:16;72.55;;;29.80;;
36009;SDS011;22076;52.182;5.404;2022-12-18T03:45:50;66.57;;;27.90;;
36009;SDS011;22076;52.182;5.404;2022-12-18T03:48:19;70.07;;;27.10;;
36009;SDS011;22076;52.182;5.404;2022-12-18T03:50:53;65.13;;;26.48;;
36009;SDS011;22076;52.182;5.404;2022-12-18T03:53:24;61.72;;;24.40;;
36009;SDS011;22076;52.182;5.404;2022-12-18T03:55:55;72.55;;;29.30;;
36009;SDS011;22076;52.182;5.404;2022-12-18T03:58:23;62.33;;;25.65;;
36009;SDS011;22076;52.182;5.404;2022-12-18T04:00:52;53.42;;;24.17;;
36009;SDS011;22076;52.182;5.404;2022-12-18T04:03:21;64.32;;;27.95;;
36009;SDS011;22076;52.182;5.404;2022-12-18T04:05:49;66.88;;;29.38;;
36009;SDS011;22076;52.182;5.404;2022-12-18T04:08:17;71.70;;;29.73;;
36009;SDS011;22076;52.182;5.404;2022-12-18T04:10:44;47.50;;;20.88;;
36009;SDS011;22076;52.182;5.404;2022-12-18T04:13:11;54.05;;;24.10;;
36009;SDS011;22076;52.182;5.404;2022-12-18T04:15:37;74.13;;;30.02;;
36009;SDS011;22076;52.182;5.404;2022-12-18T04:18:07;52.42;;;22.73;;
36009;SDS011;22076;52.182;5.404;2022-12-18T04:20:34;60.92;;;27.48;;
36009;SDS011;22076;52.182;5.404;2022-12-18T04:23:00;67.68;;;27.40;;
36009;SDS011;22076;52.182;5.404;2022-12-18T04:25:27;57.63;;;26.58;;
36009;SDS011;22076;52.182;5.404;2022-12-18T04:27:53;63.70;;;27.63;;
36009;SDS011;22076;52.182;5.404;2022-12-18T04:30:20;53.75;;;22.55;;
36009;SDS011;22076;52.182;5.404;2022-12-18T04:32:46;59.05;;;24.42;;
36009;SDS011;22076;52.182;5.404;2022-12-18T04:35:15;55.95;;;26.20;;
36009;SDS011;22076;52.182;5.404;2022-12-18T04:37:41;59.25;;;24.35;;
36009;SDS011;22076;52.182;5.404;2022-12-18T04:40:08;60.90;;;26.00;;
36009;SDS011;22076;52.182;5.404;2022-12-18T04:42:35;50.38;;;24.17;;
36009;SDS011;22076;52.182;5.404;2022-12-18T04:45:02;55.70;;;24.33;;
36009;SDS011;22076;52.182;5.404;2022-12-18T04:47:30;54.30;;;24.77;;
36009;SDS011;22076;52.182;5.404;2022-12-18T04:49:56;59.15;;;25.95;;
36009;SDS011;22076;52.182;5.404;2022-12-18T04:52:24;53.25;;;22.17;;
36009;SDS011;22076;52.182;5.404;2022-12-18T04:54:51;49.17;;;19.48;;
36009;SDS011;22076;52.182;5.404;2022-12-18T04:57:17;54.90;;;23.08;;
36009;SDS011;22076;52.182;5.404;2022-12-18T04:59:44;63.45;;;26.45;;
36009;SDS011;22076;52.182;5.404;2022-12-18T05:02:10;56.45;;;24.88;;
36009;SDS011;22076;52.182;5.404;2022-12-18T05:04:37;51.63;;;24.45;;
36009;SDS011;22076;52.182;5.404;2022-12-18T05:07:03;46.60;;;20.85;;
36009;SDS011;22076;52.182;5.404;2022-12-18T05:09:32;51.08;;;24.35;;
36009;SDS011;22076;52.182;5.404;2022-12-18T05:11:58;48.13;;;21.67;;
36009;SDS011;22076;52.182;5.404;2022-12-18T05:14:25;49.38;;;22.55;;
36009;SDS011;22076;52.182;5.404;2022-12-18T05:16:52;52.40;;;23.67;;
36009;SDS011;22076;52.182;5.404;2022-12-18T05:19:19;49.42;;;25.25;;
36009;SDS011;22076;52.182;5.404;2022-12-18T05:21:45;42.38;;;18.52;;
36009;SDS011;22076;52.182;5.404;2022-12-18T05:24:12;45.90;;;20.23;;
36009;SDS011;22076;52.182;5.404;2022-12-18T05:26:40;47.22;;;22.95;;
36009;SDS011;22076;52.182;5.404;2022-12-18T05:29:06;54.00;;;24.08;;
36009;SDS011;22076;52.182;5.404;2022-12-18T05:31:33;43.30;;;19.17;;
36009;SDS011;22076;52.182;5.404;2022-12-18T05:33:59;41.80;;;19.08;;
36009;SDS011;22076;52.182;5.404;2022-12-18T05:36:26;49.83;;;22.80;;
36009;SDS011;22076;52.182;5.404;2022-12-18T05:38:52;48.67;;;20.40;;
36009;SDS011;22076;52.182;5.404;2022-12-18T05:41:19;41.45;;;19.52;;
36009;SDS011;22076;52.182;5.404;2022-12-18T05:43:47;46.58;;;21.13;;
36009;SDS011;22076;52.182;5.404;2022-12-18T05:46:14;47.95;;;21.23;;
36009;SDS011;22076;52.182;5.404;2022-12-18T05:48:42;43.00;;;20.13;;
36009;SDS011;22076;52.182;5.404;2022-12-18T05:51:10;59.10;;;22.98;;
36009;SDS011;22076;52.182;5.404;2022-12-18T05:53:39;33.95;;;16.02;;
36009;SDS011;22076;52.182;5.404;2022-12-18T05:56:07;40.83;;;19.88;;
36009;SDS011;22076;52.182;5.404;2022-12-18T05:58:35;44.28;;;20.13;;
36009;SDS011;22076;52.182;5.404;2022-12-18T06:01:07;50.33;;;22.67;;
36009;SDS011;22076;52.182;5.404;2022-12-18T06:03:35;45.22;;;21.73;;
36009;SDS011;22076;52.182;5.404;2022-12-18T06:06:02;35.30;;;17.40;;
36009;SDS011;22076;52.182;5.404;2022-12-18T06:08:29;50.08;;;21.75;;
36009;SDS011;22076;52.182;5.404;2022-12-18T06:10:55;49.03;;;21.17;;
36009;SDS011;22076;52.182;5.404;2022-12-18T06:13:22;49.78;;;21.98;;
36009;SDS011;22076;52.182;5.404;2022-12-18T06:15:48;49.60;;;23.25;;
36009;SDS011;22076;52.182;5.404;2022-12-18T06:18:16;47.15;;;22.08;;
36009;SDS011;22076;52.182;5.404;2022-12-18T06:20:43;50.92;;;22.73;;
36009;SDS011;22076;52.182;5.404;2022-12-18T06:23:10;36.47;;;16.73;;
36009;SDS011;22076;52.182;5.404;2022-12-18T06:25:37;48.83;;;23.13;;
36009;SDS011;22076;52.182;5.404;2022-12-18T06:28:05;39.55;;;19.80;;
36009;SDS011;22076;52.182;5.404;2022-12-18T06:30:32;52.38;;;24.48;;
36009;SDS011;22076;52.182;5.404;2022-12-18T06:32:58;40.33;;;20.10;;
36009;SDS011;22076;52.182;5.404;2022-12-18T06:35:26;55.97;;;24.08;;
36009;SDS011;22076;52.182;5.404;2022-12-18T06:37:53;51.05;;;24.67;;
36009;SDS011;22076;52.182;5.404;2022-12-18T06:40:19;50.97;;;23.65;;
36009;SDS011;22076;52.182;5.404;2022-12-18T06:42:46;45.15;;;22.27;;
36009;SDS011;22076;52.182;5.404;2022-12-18T06:45:12;42.80;;;19.60;;
36009;SDS011;22076;52.182;5.404;2022-12-18T06:47:42;54.75;;;24.20;;
36009;SDS011;22076;52.182;5.404;2022-12-18T06:50:09;47.00;;;21.70;;
36009;SDS011;22076;52.182;5.404;2022-12-18T06:52:37;47.38;;;21.38;;
36009;SDS011;22076;52.182;5.404;2022-12-18T06:55:04;36.97;;;16.45;;
36009;SDS011;22076;52.182;5.404;2022-12-18T06:57:34;46.78;;;20.42;;
36009;SDS011;22076;52.182;5.404;2022-12-18T07:00:01;47.25;;;20.95;;
36009;SDS011;22076;52.182;5.404;2022-12-18T07:02:29;42.17;;;20.13;;
36009;SDS011;22076;52.182;5.404;2022-12-18T07:04:56;44.47;;;20.57;;
36009;SDS011;22076;52.182;5.404;2022-12-18T07:07:22;49.40;;;21.40;;
36009;SDS011;22076;52.182;5.404;2022-12-18T07:09:51;37.63;;;17.63;;
36009;SDS011;22076;52.182;5.404;2022-12-18T07:12:18;45.37;;;21.83;;
36009;SDS011;22076;52.182;5.404;2022-12-18T07:14:44;37.07;;;19.80;;
36009;SDS011;22076;52.182;5.404;2022-12-18T07:17:11;33.67;;;16.70;;
36009;SDS011;22076;52.182;5.404;2022-12-18T07:19:37;44.10;;;20.27;;
36009;SDS011;22076;52.182;5.404;2022-12-18T07:22:04;45.17;;;21.42;;
36009;SDS011;22076;52.182;5.404;2022-12-18T07:24:31;39.73;;;17.77;;
36009;SDS011;22076;52.182;5.404;2022-12-18T07:27:00;42.23;;;19.40;;
36009;SDS011;22076;52.182;5.404;2022-12-18T07:29:26;33.87;;;16.73;;
36009;SDS011;22076;52.182;5.404;2022-12-18T07:31:53;43.60;;;21.13;;
36009;SDS011;22076;52.182;5.404;2022-12-18T07:34:20;33.35;;;16.30;;
36009;SDS011;22076;52.182;5.404;2022-12-18T07:36:46;34.20;;;17.92;;
36009;SDS011;22076;52.182;5.404;2022-12-18T07:39:13;35.92;;;17.67;;
36009;SDS011;22076;52.182;5.404;2022-12-18T07:41:39;36.13;;;19.13;;
36009;SDS011;22076;52.182;5.404;2022-12-18T07:44:12;38.37;;;16.70;;
36009;SDS011;22076;52.182;5.404;2022-12-18T07:46:38;35.30;;;17.10;;
36009;SDS011;22076;52.182;5.404;2022-12-18T07:49:05;39.42;;;19.00;;
36009;SDS011;22076;52.182;5.404;2022-12-18T07:51:32;41.65;;;21.63;;
36009;SDS011;22076;52.182;5.404;2022-12-18T07:53:58;40.33;;;20.50;;
36009;SDS011;22076;52.182;5.404;2022-12-18T07:56:25;40.97;;;18.35;;
36009;SDS011;22076;52.182;5.404;2022-12-18T07:58:51;40.83;;;19.42;;
36009;SDS011;22076;52.182;5.404;2022-12-18T08:01:19;37.22;;;16.13;;
36009;SDS011;22076;52.182;5.404;2022-12-18T08:03:46;44.43;;;21.47;;
36009;SDS011;22076;52.182;5.404;2022-12-18T08:06:12;38.67;;;19.13;;
36009;SDS011;22076;52.182;5.404;2022-12-18T08:08:39;40.50;;;18.95;;
36009;SDS011;22076;52.182;5.404;2022-12-18T08:11:07;36.85;;;18.15;;
36009;SDS011;22076;52.182;5.404;2022-12-18T08:13:33;40.65;;;18.67;;
36009;SDS011;22076;52.182;5.404;2022-12-18T08:16:00;39.55;;;18.80;;
36009;SDS011;22076;52.182;5.404;2022-12-18T08:18:29;37.05;;;18.10;;
36009;SDS011;22076;52.182;5.404;2022-12-18T08:21:06;43.67;;;18.87;;
36009;SDS011;22076;52.182;5.404;2022-12-18T08:23:34;45.70;;;21.17;;
36009;SDS011;22076;52.182;5.404;2022-12-18T08:26:00;40.63;;;20.67;;
36009;SDS011;22076;52.182;5.404;2022-12-18T08:28:27;35.03;;;16.75;;
36009;SDS011;22076;52.182;5.404;2022-12-18T08:30:53;39.60;;;19.00;;
36009;SDS011;22076;52.182;5.404;2022-12-18T08:33:20;42.70;;;18.90;;
36009;SDS011;22076;52.182;5.404;2022-12-18T08:35:48;34.10;;;17.30;;
36009;SDS011;22076;52.182;5.404;2022-12-18T08:38:14;40.35;;;18.35;;
36009;SDS011;22076;52.182;5.404;2022-12-18T08:40:41;38.30;;;21.23;;
36009;SDS011;22076;52.182;5.404;2022-12-18T08:43:08;38.72;;;17.73;;
36009;SDS011;22076;52.182;5.404;2022-12-18T08:46:04;36.40;;;16.48;;
36009;SDS011;22076;52.182;5.404;2022-12-18T08:48:31;39.08;;;18.42;;
36009;SDS011;22076;52.182;5.404;2022-12-18T08:50:59;37.85;;;19.20;;
36009;SDS011;22076;52.182;5.404;2022-12-18T08:53:26;35.08;;;15.88;;
36009;SDS011;22076;52.182;5.404;2022-12-18T08:55:53;39.08;;;19.58;;
36009;SDS011;22076;52.182;5.404;2022-12-18T08:58:19;44.35;;;22.67;;
36009;SDS011;22076;52.182;5.404;2022-12-18T09:00:46;43.90;;;22.03;;
36009;SDS011;22076;52.182;5.404;2022-12-18T09:03:13;43.80;;;21.93;;
36009;SDS011;22076;52.182;5.404;2022-12-18T09:05:39;49.50;;;22.80;;
36009;SDS011;22076;52.182;5.404;2022-12-18T09:08:07;40.47;;;21.15;;
36009;SDS011;22076;52.182;5.404;2022-12-18T09:10:40;43.60;;;21.00;;
36009;SDS011;22076;52.182;5.404;2022-12-18T09:13:07;45.30;;;21.70;;
36009;SDS011;22076;52.182;5.404;2022-12-18T09:15:34;42.70;;;20.60;;
36009;SDS011;22076;52.182;5.404;2022-12-18T09:18:00;46.43;;;21.27;;
36009;SDS011;22076;52.182;5.404;2022-12-18T09:20:27;34.50;;;17.02;;
36009;SDS011;22076;52.182;5.404;2022-12-18T09:22:54;45.22;;;21.70;;
36009;SDS011;22076;52.182;5.404;2022-12-18T09:28:36;48.38;;;20.75;;
36009;SDS011;22076;52.182;5.404;2022-12-18T09:31:04;39.63;;;21.87;;
36009;SDS011;22076;52.182;5.404;2022-12-18T09:33:32;46.30;;;22.33;;
36009;SDS011;22076;52.182;5.404;2022-12-18T09:36:00;43.13;;;22.08;;
36009;SDS011;22076;52.182;5.404;2022-12-18T09:38:27;40.45;;;21.65;;
36009;SDS011;22076;52.182;5.404;2022-12-18T09:40:55;49.10;;;23.40;;
36009;SDS011;22076;52.182;5.404;2022-12-18T09:43:24;47.33;;;24.20;;
36009;SDS011;22076;52.182;5.404;2022-12-18T09:45:55;40.57;;;20.93;;
36009;SDS011;22076;52.182;5.404;2022-12-18T09:48:26;46.13;;;20.55;;
36009;SDS011;22076;52.182;5.404;2022-12-18T09:50:55;41.95;;;19.50;;
36009;SDS011;22076;52.182;5.404;2022-12-18T09:53:26;45.22;;;22.15;;
36009;SDS011;22076;52.182;5.404;2022-12-18T09:55:54;40.67;;;22.23;;
36009;SDS011;22076;52.182;5.404;2022-12-18T09:58:25;45.35;;;22.85;;
36009;SDS011;22076;52.182;5.404;2022-12-18T10:00:55;38.78;;;17.80;;
36009;SDS011;22076;52.182;5.404;2022-12-18T10:03:22;42.53;;;21.40;;
36009;SDS011;22076;52.182;5.404;2022-12-18T10:05:52;36.75;;;19.30;;
36009;SDS011;22076;52.182;5.404;2022-12-18T10:08:25;38.23;;;19.37;;
36009;SDS011;22076;52.182;5.404;2022-12-18T10:11:01;40.80;;;19.67;;
36009;SDS011;22076;52.182;5.404;2022-12-18T10:13:37;42.83;;;20.03;;
36009;SDS011;22076;52.182;5.404;2022-12-18T10:16:11;43.30;;;21.30;;
36009;SDS011;22076;52.182;5.404;2022-12-18T10:21:30;38.38;;;19.23;;
36009;SDS011;22076;52.182;5.404;2022-12-18T10:24:02;42.53;;;18.55;;
36009;SDS011;22076;52.182;5.404;2022-12-18T10:26:38;49.80;;;19.83;;
36009;SDS011;22076;52.182;5.404;2022-12-18T10:29:07;34.53;;;17.43;;
36009;SDS011;22076;52.182;5.404;2022-12-18T10:31:35;39.90;;;20.35;;
36009;SDS011;22076;52.182;5.404;2022-12-18T10:34:02;33.83;;;17.70;;
36009;SDS011;22076;52.182;5.404;2022-12-18T10:36:28;35.00;;;16.40;;
36009;SDS011;22076;52.182;5.404;2022-12-18T10:38:55;39.92;;;18.88;;
36009;SDS011;22076;52.182;5.404;2022-12-18T10:41:40;40.15;;;19.80;;
36009;SDS011;22076;52.182;5.404;2022-12-18T10:44:10;39.90;;;18.60;;
36009;SDS011;22076;52.182;5.404;2022-12-18T10:46:40;36.35;;;18.25;;
36009;SDS011;22076;52.182;5.404;2022-12-18T10:49:17;37.30;;;18.80;;
36009;SDS011;22076;52.182;5.404;2022-12-18T10:51:46;37.13;;;19.48;;
36009;SDS011;22076;52.182;5.404;2022-12-18T10:54:14;37.80;;;17.25;;
36009;SDS011;22076;52.182;5.404;2022-12-18T10:56:41;36.65;;;18.75;;
36009;SDS011;22076;52.182;5.404;2022-12-18T10:59:09;39.42;;;19.00;;
36009;SDS011;22076;52.182;5.404;2022-12-18T11:01:51;38.92;;;17.77;;
36009;SDS011;22076;52.182;5.404;2022-12-18T11:06:53;32.45;;;16.80;;
36009;SDS011;22076;52.182;5.404;2022-12-18T11:09:23;39.60;;;18.98;;
36009;SDS011;22076;52.182;5.404;2022-12-18T11:11:50;32.08;;;15.40;;
36009;SDS011;22076;52.182;5.404;2022-12-18T11:14:20;37.60;;;18.25;;
36009;SDS011;22076;52.182;5.404;2022-12-18T11:16:51;36.80;;;18.88;;
36009;SDS011;22076;52.182;5.404;2022-12-18T11:19:20;39.58;;;19.50;;
36009;SDS011;22076;52.182;5.404;2022-12-18T11:21:51;30.63;;;15.88;;
36009;SDS011;22076;52.182;5.404;2022-12-18T11:24:19;39.25;;;19.05;;
36009;SDS011;22076;52.182;5.404;2022-12-18T11:26:47;39.08;;;19.15;;
36009;SDS011;22076;52.182;5.404;2022-12-18T11:29:16;37.30;;;16.50;;
36009;SDS011;22076;52.182;5.404;2022-12-18T11:31:43;36.80;;;17.73;;
36009;SDS011;22076;52.182;5.404;2022-12-18T11:34:11;40.05;;;18.88;;
36009;SDS011;22076;52.182;5.404;2022-12-18T11:36:41;35.33;;;15.93;;
36009;SDS011;22076;52.182;5.404;2022-12-18T11:39:10;38.40;;;16.30;;
36009;SDS011;22076;52.182;5.404;2022-12-18T11:41:41;36.05;;;16.52;;
36009;SDS011;22076;52.182;5.404;2022-12-18T11:44:32;35.15;;;17.33;;
36009;SDS011;22076;52.182;5.404;2022-12-18T11:47:03;27.35;;;13.43;;
36009;SDS011;22076;52.182;5.404;2022-12-18T11:49:36;34.03;;;15.98;;
36009;SDS011;22076;52.182;5.404;2022-12-18T11:52:07;34.40;;;15.65;;
36009;SDS011;22076;52.182;5.404;2022-12-18T11:54:39;40.15;;;17.98;;
36009;SDS011;22076;52.182;5.404;2022-12-18T11:57:06;38.97;;;17.30;;
36009;SDS011;22076;52.182;5.404;2022-12-18T11:59:37;35.55;;;16.40;;
36009;SDS011;22076;52.182;5.404;2022-12-18T12:02:16;26.95;;;14.85;;
36009;SDS011;22076;52.182;5.404;2022-12-18T12:04:58;34.20;;;15.38;;
36009;SDS011;22076;52.182;5.404;2022-12-18T12:07:44;33.65;;;16.13;;
36009;SDS011;22076;52.182;5.404;2022-12-18T12:10:24;33.78;;;16.05;;
36009;SDS011;22076;52.182;5.404;2022-12-18T12:13:00;36.30;;;15.90;;
36009;SDS011;22076;52.182;5.404;2022-12-18T12:15:38;36.70;;;17.80;;
36009;SDS011;22076;52.182;5.404;2022-12-18T12:18:11;40.40;;;18.27;;
36009;SDS011;22076;52.182;5.404;2022-12-18T12:20:49;35.80;;;19.58;;
36009;SDS011;22076;52.182;5.404;2022-12-18T12:23:22;33.78;;;15.23;;
36009;SDS011;22076;52.182;5.404;2022-12-18T12:25:54;34.28;;;17.33;;
36009;SDS011;22076;52.182;5.404;2022-12-18T12:28:30;34.05;;;16.63;;
36009;SDS011;22076;52.182;5.404;2022-12-18T12:31:05;39.42;;;18.20;;
36009;SDS011;22076;52.182;5.404;2022-12-18T12:33:36;31.10;;;15.68;;
36009;SDS011;22076;52.182;5.404;2022-12-18T12:36:14;32.08;;;15.00;;
36009;SDS011;22076;52.182;5.404;2022-12-18T12:38:44;33.58;;;16.25;;
36009;SDS011;22076;52.182;5.404;2022-12-18T12:41:16;34.80;;;16.75;;
36009;SDS011;22076;52.182;5.404;2022-12-18T12:44:07;30.08;;;15.57;;
36009;SDS011;22076;52.182;5.404;2022-12-18T12:46:39;33.67;;;15.88;;
36009;SDS011;22076;52.182;5.404;2022-12-18T12:49:09;36.80;;;17.10;;
36009;SDS011;22076;52.182;5.404;2022-12-18T12:51:40;39.17;;;17.83;;
36009;SDS011;22076;52.182;5.404;2022-12-18T12:54:11;38.03;;;18.17;;
36009;SDS011;22076;52.182;5.404;2022-12-18T12:56:42;31.52;;;14.75;;
36009;SDS011;22076;52.182;5.404;2022-12-18T12:59:13;38.90;;;18.92;;
36009;SDS011;22076;52.182;5.404;2022-12-18T13:01:47;28.92;;;12.70;;
36009;SDS011;22076;52.182;5.404;2022-12-18T13:04:18;38.67;;;17.15;;
36009;SDS011;22076;52.182;5.404;2022-12-18T13:06:55;38.45;;;18.45;;
36009;SDS011;22076;52.182;5.404;2022-12-18T13:09:29;35.67;;;16.70;;
36009;SDS011;22076;52.182;5.404;2022-12-18T13:12:01;37.10;;;18.33;;
36009;SDS011;22076;52.182;5.404;2022-12-18T13:14:47;32.03;;;15.07;;
36009;SDS011;22076;52.182;5.404;2022-12-18T13:17:21;34.30;;;17.25;;
36009;SDS011;22076;52.182;5.404;2022-12-18T13:20:04;38.78;;;16.77;;
36009;SDS011;22076;52.182;5.404;2022-12-18T13:22:35;39.55;;;18.33;;
36009;SDS011;22076;52.182;5.404;2022-12-18T13:25:02;39.38;;;16.92;;
36009;SDS011;22076;52.182;5.404;2022-12-18T13:27:46;33.83;;;17.20;;
36009;SDS011;22076;52.182;5.404;2022-12-18T13:30:41;32.28;;;15.63;;
36009;SDS011;22076;52.182;5.404;2022-12-18T13:36:16;38.72;;;18.50;;
36009;SDS011;22076;52.182;5.404;2022-12-18T13:41:49;30.02;;;15.68;;
36009;SDS011;22076;52.182;5.404;2022-12-18T13:44:23;39.15;;;18.88;;
36009;SDS011;22076;52.182;5.404;2022-12-18T13:46:51;34.28;;;15.90;;
36009;SDS011;22076;52.182;5.404;2022-12-18T13:49:20;35.17;;;17.83;;
36009;SDS011;22076;52.182;5.404;2022-12-18T13:51:49;38.05;;;17.60;;
36009;SDS011;22076;52.182;5.404;2022-12-18T13:54:18;39.55;;;18.27;;
36009;SDS011;22076;52.182;5.404;2022-12-18T13:56:47;36.88;;;17.80;;
36009;SDS011;22076;52.182;5.404;2022-12-18T13:59:16;38.60;;;18.45;;
36009;SDS011;22076;52.182;5.404;2022-12-18T14:01:45;28.20;;;12.95;;
36009;SDS011;22076;52.182;5.404;2022-12-18T14:04:18;37.20;;;18.92;;
36009;SDS011;22076;52.182;5.404;2022-12-18T14:06:46;41.30;;;18.27;;
36009;SDS011;22076;52.182;5.404;2022-12-18T14:09:14;28.92;;;13.82;;
36009;SDS011;22076;52.182;5.404;2022-12-18T14:11:45;34.90;;;18.02;;
36009;SDS011;22076;52.182;5.404;2022-12-18T14:16:41;32.20;;;13.95;;
36009;SDS011;22076;52.182;5.404;2022-12-18T14:19:08;39.28;;;19.30;;
36009;SDS011;22076;52.182;5.404;2022-12-18T14:21:38;46.15;;;19.33;;
36009;SDS011;22076;52.182;5.404;2022-12-18T14:24:06;36.88;;;17.90;;
36009;SDS011;22076;52.182;5.404;2022-12-18T14:26:39;40.15;;;19.10;;
36009;SDS011;22076;52.182;5.404;2022-12-18T14:32:06;36.83;;;18.10;;
36009;SDS011;22076;52.182;5.404;2022-12-18T14:34:33;26.95;;;14.73;;
36009;SDS011;22076;52.182;5.404;2022-12-18T14:37:00;39.47;;;18.08;;
36009;SDS011;22076;52.182;5.404;2022-12-18T14:39:27;38.35;;;18.00;;
36009;SDS011;22076;52.182;5.404;2022-12-18T14:41:54;40.53;;;19.40;;
36009;SDS011;22076;52.182;5.404;2022-12-18T14:44:21;31.15;;;15.70;;
36009;SDS011;22076;52.182;5.404;2022-12-18T14:46:48;37.00;;;18.33;;
36009;SDS011;22076;52.182;5.404;2022-12-18T14:49:21;31.00;;;15.35;;
36009;SDS011;22076;52.182;5.404;2022-12-18T14:51:50;36.30;;;17.30;;
36009;SDS011;22076;52.182;5.404;2022-12-18T14:54:18;37.92;;;17.75;;
36009;SDS011;22076;52.182;5.404;2022-12-18T14:56:46;31.25;;;16.23;;